No data was retrieved for https://query.yahooapis.com/v1/public/yql?q=select+%2A+from+weather.forecast+where+woeid%3D973505&format=xml&u=c

Due to severe server failure at the provider, not all demo sites are operational. Will take some days to rebuilt everything.

Demonstration site - Click on the  for more information

This is an optional block. Switch it on/off in your settings-file: $SITE['bannerTop'] = false; or $SITE['bannerBottom'] = false;

You can display ads, any other important text or photo’s using text / html or PHP code.

You can place one or more at the top and or bottom and it can all be different for content / size .



Visit our other weather sites:

Template documentation
and downloads

And another site



Nearby METAR Reports

   
EBAW - Antwerp
Updated: 14-06-2021 13:50
Clear  
Clear  
   Wind: West 13 km/h
Wind: West 13 km/h
Temperature: 27°C
Dew Point: 10°C
Humidity: 34%
Barometer: 1020 hPa
Visibility: More than 10 km
Cloud details: Clear ft
EBAW 141150Z 27007KT 240V320 CAVOK 27/10 Q1020 NOSIG
EBLG - Liège
Updated: 14-06-2021 13:50
Clear  
Clear  
   Wind: NW 7.4 km/h
Wind: NW 7.4 km/h
Temperature: 26°C
Dew Point: 11°C
Humidity: 39%
Barometer: 1021 hPa
Visibility: More than 10 km
Cloud details: Clear ft
EBLG 141150Z 32004KT 260V030 CAVOK 26/11 Q1021 NOSIG
EBCV - Mons/Bergen
Updated: 14-06-2021 13:55
Clear  
Clear  
   Wind: SSW 7.4 km/h
Wind: SSW 7.4 km/h
Temperature: 26°C
Dew Point: 9°C
Humidity: 34%
Barometer: 1020 hPa
Clouds: Clear
Visibility: More than 10 km
Cloud details: Clear ft
EBCV 141155Z AUTO 21004KT 9999 NCD 26/09 Q1020 BLU
EHBK - Maastricht
Updated: 14-06-2021 13:55
Clear  
Clear  
   Wind: WSW 11.1 km/h
Wind: WSW 11.1 km/h
Temperature: 26°C
Dew Point: 12°C
Humidity: 42%
Barometer: 1020 hPa
Clouds: Clear
Visibility: More than 10 km
Cloud details: Clear ft
EHBK 141155Z AUTO 24006KT 180V310 9999 NCD 26/12 Q1020 NOSIG
ELLX - Luxemburg
Updated: 14-06-2021 13:50
Clear  
Clear  
   Wind: varies 7.4 km/h
Wind: varies 7.4 km/h
Temperature: 24°C
Dew Point: 10°C
Humidity: 41%
Barometer: 1021 hPa
Visibility: More than 10 km
Cloud details: Clear ft
ELLX 141150Z VRB04KT CAVOK 24/10 Q1021 NOSIG
EBOS - Oostende
Updated: 14-06-2021 13:50
Clear  
Clear  
   Wind: NW 16.7 km/h
Wind: NW 16.7 km/h
Temperature: 23°C
Dew Point: 10°C
Humidity: 44%
Barometer: 1021 hPa
Visibility: More than 10 km
Cloud details: Clear ft
EBOS 141150Z 32009KT CAVOK 23/10 Q1021 NOSIG

Script developed by  Saratoga-weather.org Adapted for the template by  Weerstation Leuven

You find our weather info also at:

FRWN

Equipment we use:

Provider
Robohost

Robohost

This is an optional block. Switch it on/off in your settings-file: $SITE['bannerTop'] = false; or $SITE['bannerBottom'] = false;

You can display ads, any other important text or photo’s using text / html or PHP code.

You can place one or more at the top and or bottom and it can all be different for content / size .